createdAt,value
2024-04-25T00:02:05.442Z,10.57
2024-04-25T00:04:33.640Z,8.97
2024-04-25T00:07:01.341Z,8.70
2024-04-25T00:09:28.928Z,8.43
2024-04-25T00:11:57.554Z,7.80
2024-04-25T00:14:25.076Z,8.53
2024-04-25T00:16:52.911Z,9.60
2024-04-25T00:19:20.383Z,10.83
2024-04-25T00:21:47.759Z,9.40
2024-04-25T00:24:17.411Z,9.27
2024-04-25T00:26:45.172Z,9.77
2024-04-25T00:29:12.727Z,9.47
2024-04-25T00:31:40.742Z,11.83
2024-04-25T00:34:08.668Z,12.90
2024-04-25T00:36:36.016Z,8.50
2024-04-25T00:39:03.609Z,9.03
2024-04-25T00:41:31.067Z,9.87
2024-04-25T00:43:59.064Z,8.30
2024-04-25T00:46:26.770Z,7.63
2024-04-25T00:48:57.197Z,8.87
2024-04-25T00:51:25.223Z,7.87
2024-04-25T00:53:52.933Z,7.57
2024-04-25T00:56:22.525Z,7.37
2024-04-25T00:58:51.543Z,8.20
2024-04-25T01:01:22.502Z,8.27
2024-04-25T01:03:53.460Z,7.67
2024-04-25T01:06:22.750Z,7.87
2024-04-25T01:08:51.696Z,8.53
2024-04-25T01:11:19.517Z,9.70
2024-04-25T01:13:47.811Z,8.13
2024-04-25T01:16:15.296Z,7.07
2024-04-25T01:18:44.945Z,9.30
2024-04-25T01:21:12.811Z,8.30
2024-04-25T01:23:41.742Z,9.00
2024-04-25T01:26:11.278Z,8.80
2024-04-25T01:28:41.531Z,7.67
2024-04-25T01:31:09.287Z,7.70
2024-04-25T01:33:40.487Z,8.27
2024-04-25T01:36:08.260Z,11.73
2024-04-25T01:38:36.055Z,8.57
2024-04-25T01:41:03.959Z,7.60
2024-04-25T01:43:53.936Z,7.63
2024-04-25T01:46:21.362Z,7.80
2024-04-25T01:48:50.108Z,7.90
2024-04-25T01:51:17.919Z,9.23
2024-04-25T01:53:46.386Z,10.60
2024-04-25T01:56:14.174Z,8.07
2024-04-25T01:58:56.647Z,7.83
2024-04-25T02:01:24.076Z,8.20
2024-04-25T02:03:52.059Z,8.10
2024-04-25T02:06:19.609Z,9.20
2024-04-25T02:08:47.475Z,7.93
2024-04-25T02:11:14.978Z,8.27
2024-04-25T02:13:44.294Z,7.80
2024-04-25T02:16:13.235Z,7.80
2024-04-25T02:18:41.264Z,7.57
2024-04-25T02:21:27.178Z,7.77
2024-04-25T02:24:13.397Z,7.87
2024-04-25T02:26:44.375Z,8.30
2024-04-25T02:29:12.269Z,8.70
2024-04-25T02:31:41.867Z,8.30
2024-04-25T02:34:09.792Z,8.23
2024-04-25T02:36:38.532Z,10.53
2024-04-25T02:39:10.622Z,9.33
2024-04-25T02:41:38.285Z,8.77
2024-04-25T02:44:06.095Z,9.87
2024-04-25T02:46:33.567Z,11.87
2024-04-25T02:49:01.251Z,9.50
2024-04-25T02:51:29.398Z,10.83
2024-04-25T02:53:56.859Z,9.67
2024-04-25T02:56:24.289Z,9.33
2024-04-25T02:58:52.538Z,10.13
2024-04-25T03:01:20.045Z,9.60
2024-04-25T03:03:47.623Z,10.03
2024-04-25T03:06:15.019Z,8.90
2024-04-25T03:08:43.127Z,9.13
2024-04-25T03:11:10.654Z,8.63
2024-04-25T03:13:41.455Z,10.77
2024-04-25T03:16:09.650Z,10.77
2024-04-25T03:18:37.682Z,9.43
2024-04-25T03:21:09.186Z,12.53
2024-04-25T03:23:38.958Z,10.13
2024-04-25T03:26:06.628Z,9.23
2024-04-25T03:28:35.316Z,11.53
2024-04-25T03:31:03.787Z,9.93
2024-04-25T03:33:31.605Z,9.50
2024-04-25T03:35:59.146Z,10.63
2024-04-25T03:38:27.265Z,11.17
2024-04-25T03:40:54.920Z,9.87
2024-04-25T03:43:22.362Z,10.90
2024-04-25T03:45:50.444Z,11.53
2024-04-25T03:48:19.200Z,12.83
2024-04-25T03:50:46.752Z,12.80
2024-04-25T03:53:14.688Z,12.03
2024-04-25T03:55:43.232Z,11.50
2024-04-25T03:58:11.728Z,12.47
2024-04-25T04:00:39.127Z,13.30
2024-04-25T04:03:08.158Z,12.10
2024-04-25T04:05:35.951Z,13.40
2024-04-25T04:08:05.589Z,12.37
2024-04-25T04:10:34.524Z,12.63
2024-04-25T04:13:03.299Z,13.07
2024-04-25T04:15:30.714Z,14.43
2024-04-25T04:17:58.325Z,11.63
2024-04-25T04:20:25.767Z,13.67
2024-04-25T04:22:53.525Z,15.77
2024-04-25T04:25:21.217Z,13.10
2024-04-25T04:27:49.133Z,12.10
2024-04-25T04:30:17.924Z,12.10
2024-04-25T04:32:45.681Z,12.50
2024-04-25T04:35:13.378Z,11.93
2024-04-25T04:37:41.316Z,13.50
2024-04-25T04:40:09.276Z,14.77
2024-04-25T04:42:38.350Z,21.07
2024-04-25T04:45:06.709Z,12.73
2024-04-25T04:47:35.599Z,14.93
2024-04-25T04:50:03.833Z,12.47
2024-04-25T04:52:41.466Z,12.70
2024-04-25T04:55:17.938Z,14.03
2024-04-25T04:57:46.346Z,15.70
2024-04-25T05:00:14.378Z,12.87
2024-04-25T05:02:42.766Z,14.23
2024-04-25T05:05:10.281Z,13.33
2024-04-25T05:07:38.536Z,13.23
2024-04-25T05:10:06.617Z,13.33
2024-04-25T05:12:34.705Z,12.23
2024-04-25T05:15:02.410Z,13.67
2024-04-25T05:17:29.951Z,13.33
2024-04-25T05:19:57.771Z,17.93
2024-04-25T05:22:28.315Z,16.07
2024-04-25T05:24:55.827Z,16.93
2024-04-25T05:27:23.299Z,15.13
2024-04-25T05:29:51.047Z,16.33
2024-04-25T05:32:18.913Z,17.10
2024-04-25T05:34:47.159Z,17.23
2024-04-25T05:37:15.263Z,16.87
2024-04-25T05:39:45.708Z,20.60
2024-04-25T05:42:14.071Z,15.73
2024-04-25T05:44:41.798Z,14.47
2024-04-25T05:47:13.782Z,13.10
2024-04-25T05:49:42.178Z,15.47
2024-04-25T05:52:09.790Z,14.30
2024-04-25T05:54:37.415Z,12.07
2024-04-25T05:57:05.146Z,13.13
2024-04-25T05:59:33.061Z,13.63
2024-04-25T06:02:01.312Z,12.83
2024-04-25T06:04:28.876Z,11.50
2024-04-25T06:06:56.990Z,11.00
2024-04-25T06:09:25.119Z,10.93
2024-04-25T06:11:53.200Z,11.60
2024-04-25T06:14:24.535Z,10.50
2024-04-25T06:16:52.524Z,10.10
2024-04-25T06:19:20.169Z,10.07
2024-04-25T06:21:47.718Z,10.27
2024-04-25T06:24:15.401Z,11.00
2024-04-25T06:26:43.049Z,10.80
2024-04-25T06:29:10.651Z,10.87
2024-04-25T06:31:45.494Z,11.50
2024-04-25T06:34:13.493Z,12.47
2024-04-25T06:36:41.951Z,11.90
2024-04-25T06:39:10.872Z,10.43
2024-04-25T06:41:46.624Z,10.53
2024-04-25T06:44:27.592Z,11.13
2024-04-25T06:47:00.074Z,10.27
2024-04-25T06:49:27.732Z,9.40
2024-04-25T06:51:55.428Z,10.47
2024-04-25T06:54:24.534Z,9.47
2024-04-25T06:56:57.147Z,11.67
2024-04-25T06:59:25.268Z,10.03
2024-04-25T07:01:55.445Z,11.60
2024-04-25T07:04:23.545Z,9.33
2024-04-25T07:06:51.097Z,11.10
2024-04-25T07:09:18.628Z,10.23
2024-04-25T07:11:47.517Z,10.27
2024-04-25T07:14:15.711Z,10.60
2024-04-25T07:16:43.367Z,9.93
2024-04-25T07:19:14.815Z,9.77
2024-04-25T07:21:42.527Z,10.10
2024-04-25T07:24:10.142Z,10.30
2024-04-25T07:26:37.690Z,12.23
2024-04-25T07:29:05.363Z,11.40
2024-04-25T07:31:32.939Z,12.83
2024-04-25T07:34:01.498Z,12.03
2024-04-25T07:36:29.774Z,13.23
2024-04-25T07:38:57.398Z,10.87
2024-04-25T07:41:25.137Z,12.37
2024-04-25T07:43:52.853Z,11.90
2024-04-25T07:46:21.634Z,10.97
2024-04-25T07:48:49.400Z,15.10
2024-04-25T07:51:17.730Z,11.93
2024-04-25T07:53:46.539Z,11.47
2024-04-25T07:56:14.126Z,11.10
2024-04-25T07:58:41.616Z,11.83
2024-04-25T08:01:09.093Z,10.43
2024-04-25T08:03:36.953Z,11.47
2024-04-25T08:06:05.092Z,14.23
2024-04-25T08:08:33.672Z,11.80
2024-04-25T08:11:01.896Z,12.50
2024-04-25T08:13:29.730Z,12.40
2024-04-25T08:15:57.357Z,10.20
2024-04-25T08:18:24.805Z,10.53
2024-04-25T08:20:52.463Z,10.03
2024-04-25T08:23:20.033Z,12.90
2024-04-25T08:25:47.630Z,10.67
2024-04-25T08:28:15.106Z,11.00
2024-04-25T08:30:42.803Z,11.03
2024-04-25T08:33:10.582Z,12.53
2024-04-25T08:35:39.770Z,12.77
2024-04-25T08:38:07.802Z,10.90
2024-04-25T08:40:36.087Z,12.80
2024-04-25T08:43:04.761Z,9.80
2024-04-25T08:45:33.804Z,11.77
2024-04-25T08:48:05.487Z,12.27
2024-04-25T08:50:34.563Z,14.13
2024-04-25T08:53:05.287Z,11.73
2024-04-25T08:55:35.517Z,14.27
2024-04-25T08:58:05.526Z,12.73
2024-04-25T09:00:33.385Z,16.43
2024-04-25T09:03:09.024Z,11.93
2024-04-25T09:05:37.237Z,15.70
2024-04-25T09:08:09.715Z,12.77
2024-04-25T09:10:43.250Z,11.13
2024-04-25T09:13:11.778Z,11.47
2024-04-25T09:15:39.158Z,10.17
2024-04-25T09:18:08.374Z,11.47
2024-04-25T09:20:38.204Z,10.13
2024-04-25T09:23:06.817Z,10.13
2024-04-25T09:25:34.726Z,10.33
2024-04-25T09:28:04.084Z,9.47
2024-04-25T09:30:34.349Z,10.10
2024-04-25T09:33:06.620Z,9.80
2024-04-25T09:35:42.822Z,8.53
2024-04-25T09:38:11.110Z,10.40
2024-04-25T09:40:38.696Z,11.27
2024-04-25T09:43:07.055Z,8.63
2024-04-25T09:45:35.432Z,8.87
2024-04-25T09:48:06.681Z,9.13
2024-04-25T09:50:41.002Z,8.40
2024-04-25T09:53:15.673Z,7.73
2024-04-25T09:55:46.501Z,7.43
2024-04-25T09:58:30.215Z,6.67
2024-04-25T10:00:58.410Z,8.30
2024-04-25T10:03:28.099Z,8.07
2024-04-25T10:05:55.795Z,7.47
2024-04-25T10:08:24.083Z,6.57
2024-04-25T10:10:51.891Z,6.53
2024-04-25T10:13:25.776Z,6.70
2024-04-25T10:15:53.450Z,6.53
2024-04-25T10:18:21.960Z,6.80
2024-04-25T10:21:00.954Z,6.50
2024-04-25T10:23:34.154Z,7.03
2024-04-25T10:26:01.969Z,6.17
2024-04-25T10:28:30.398Z,6.60
2024-04-25T10:30:59.705Z,6.17
2024-04-25T10:33:27.910Z,6.23
2024-04-25T10:36:06.825Z,6.27
2024-04-25T10:38:35.302Z,7.00
2024-04-25T10:41:02.950Z,7.30
2024-04-25T10:43:30.808Z,6.77
2024-04-25T10:45:58.482Z,6.17
2024-04-25T10:48:27.000Z,7.47
2024-04-25T10:50:54.794Z,6.63
2024-04-25T10:53:24.062Z,6.20
2024-04-25T10:55:53.067Z,7.23
2024-04-25T10:58:21.392Z,7.27
2024-04-25T11:00:48.977Z,6.53
2024-04-25T11:03:17.357Z,6.73
2024-04-25T11:05:45.774Z,8.77
2024-04-25T11:08:14.741Z,11.40
2024-04-25T11:10:42.270Z,11.17
2024-04-25T11:13:11.278Z,6.67
2024-04-25T11:15:43.369Z,7.63
2024-04-25T11:20:41.754Z,7.73
2024-04-25T11:23:18.221Z,7.27
2024-04-25T11:25:50.877Z,8.67
2024-04-25T11:28:20.397Z,8.73
2024-04-25T11:30:48.348Z,7.90
2024-04-25T11:33:27.607Z,6.20
2024-04-25T11:35:56.944Z,5.30
2024-04-25T11:38:24.904Z,7.03
2024-04-25T11:40:52.587Z,6.50
2024-04-25T11:43:21.263Z,6.57
2024-04-25T11:45:49.653Z,5.73
2024-04-25T11:48:20.080Z,5.00
2024-04-25T11:50:49.180Z,5.47
2024-04-25T11:53:20.171Z,4.33
2024-04-25T11:55:47.626Z,6.13
2024-04-25T11:58:16.445Z,4.63
2024-04-25T12:00:49.608Z,2.90
2024-04-25T12:03:17.838Z,2.50
2024-04-25T12:05:45.482Z,2.93
2024-04-25T12:08:15.247Z,4.23
2024-04-25T12:10:43.445Z,3.87
2024-04-25T12:13:12.083Z,3.10
2024-04-25T12:15:40.110Z,3.77
2024-04-25T12:18:08.437Z,3.13
2024-04-25T12:20:36.712Z,3.73
2024-04-25T12:23:04.825Z,3.40
2024-04-25T12:25:32.785Z,2.60
2024-04-25T12:28:00.828Z,2.60
2024-04-25T12:30:30.209Z,2.50
2024-04-25T12:32:58.034Z,3.10
2024-04-25T12:35:25.656Z,3.17
2024-04-25T12:37:53.812Z,2.43
2024-04-25T12:40:22.660Z,3.67
2024-04-25T12:42:50.924Z,2.87
2024-04-25T12:45:22.010Z,2.63
2024-04-25T12:47:50.386Z,2.90
2024-04-25T12:50:21.207Z,2.50
2024-04-25T12:52:49.861Z,2.97
2024-04-25T12:55:17.892Z,4.17
2024-04-25T12:57:45.947Z,3.30
2024-04-25T13:00:13.751Z,4.23
2024-04-25T13:02:41.575Z,3.30
2024-04-25T13:05:09.626Z,3.70
2024-04-25T13:07:37.957Z,3.80
2024-04-25T13:10:05.990Z,3.83
2024-04-25T13:12:34.690Z,5.37
2024-04-25T13:15:02.919Z,4.93
2024-04-25T13:17:30.892Z,5.00
2024-04-25T13:19:59.941Z,6.37
2024-04-25T13:22:27.540Z,5.57
2024-04-25T13:24:55.182Z,5.33
2024-04-25T13:27:22.808Z,5.47
2024-04-25T13:29:50.904Z,5.10
2024-04-25T13:32:19.099Z,5.00
2024-04-25T13:34:47.175Z,5.60
2024-04-25T13:37:14.790Z,4.67
2024-04-25T13:39:44.059Z,4.77
2024-04-25T13:42:15.160Z,5.23
2024-04-25T13:44:43.314Z,5.90
2024-04-25T13:47:11.217Z,4.07
2024-04-25T13:49:39.488Z,3.57
2024-04-25T13:52:07.025Z,3.60
2024-04-25T13:54:35.253Z,3.27
2024-04-25T13:57:04.078Z,3.03
2024-04-25T13:59:31.600Z,3.70
2024-04-25T14:01:59.336Z,3.20
2024-04-25T14:04:27.388Z,2.83
2024-04-25T14:06:54.912Z,2.73
2024-04-25T14:09:22.675Z,3.10
2024-04-25T14:11:50.368Z,2.90
2024-04-25T14:14:22.098Z,2.90
2024-04-25T14:16:50.876Z,2.77
2024-04-25T14:19:18.360Z,2.90
2024-04-25T14:21:46.102Z,3.60
2024-04-25T14:24:17.573Z,2.90
2024-04-25T14:27:04.266Z,2.50
2024-04-25T14:29:31.917Z,2.30
2024-04-25T14:31:59.516Z,3.43
2024-04-25T14:34:29.129Z,2.93
2024-04-25T14:36:56.846Z,4.00
2024-04-25T14:39:24.427Z,3.33
2024-04-25T14:41:52.258Z,2.63
2024-04-25T14:44:20.127Z,3.40
2024-04-25T14:46:47.699Z,3.07
2024-04-25T14:49:15.827Z,3.60
2024-04-25T14:51:43.626Z,16.33
2024-04-25T14:54:11.435Z,2.30
2024-04-25T14:56:38.996Z,2.30
2024-04-25T14:59:08.193Z,3.10
2024-04-25T15:01:36.190Z,2.90
2024-04-25T15:04:06.175Z,3.07
2024-04-25T15:06:40.730Z,3.67
2024-04-25T15:09:12.832Z,4.27
2024-04-25T15:11:40.450Z,5.43
2024-04-25T15:14:08.092Z,5.40
2024-04-25T15:16:35.616Z,6.70
2024-04-25T15:19:03.087Z,7.30
2024-04-25T15:21:30.627Z,5.97
2024-04-25T15:23:58.299Z,6.27
2024-04-25T15:26:25.866Z,6.87
2024-04-25T15:28:54.450Z,6.40
2024-04-25T15:31:23.595Z,6.63
2024-04-25T15:33:51.663Z,6.53
2024-04-25T15:36:19.383Z,9.13
2024-04-25T15:38:46.832Z,8.60
2024-04-25T15:41:14.784Z,5.33
2024-04-25T15:43:42.970Z,5.47
2024-04-25T15:46:10.605Z,5.40
2024-04-25T15:48:39.714Z,6.00
2024-04-25T15:51:07.302Z,5.57
2024-04-25T15:53:34.924Z,4.50
2024-04-25T15:56:02.962Z,3.73
2024-04-25T15:58:30.901Z,3.90
2024-04-25T16:00:58.478Z,3.93
2024-04-25T16:03:26.120Z,3.63
2024-04-25T16:05:54.165Z,3.50
2024-04-25T16:08:22.827Z,3.33
2024-04-25T16:10:50.467Z,3.03
2024-04-25T16:13:18.406Z,3.00
2024-04-25T16:15:48.115Z,3.23
2024-04-25T16:18:16.536Z,3.63
2024-04-25T16:20:44.114Z,2.83
2024-04-25T16:23:11.658Z,2.70
2024-04-25T16:25:39.217Z,3.03
2024-04-25T16:28:06.699Z,2.43
2024-04-25T16:30:34.231Z,2.97
2024-04-25T16:33:02.027Z,5.40
2024-04-25T16:35:29.627Z,2.67
2024-04-25T16:37:57.918Z,4.20
2024-04-25T16:40:25.643Z,3.10
2024-04-25T16:42:56.023Z,3.70
2024-04-25T16:45:24.049Z,3.20
2024-04-25T16:47:51.816Z,5.43
2024-04-25T16:50:19.494Z,3.20
2024-04-25T16:52:47.397Z,3.63
2024-04-25T16:55:15.574Z,3.43
2024-04-25T16:57:43.741Z,3.37
2024-04-25T17:00:12.385Z,3.63
2024-04-25T17:02:40.487Z,4.40
2024-04-25T17:05:11.064Z,4.13
2024-04-25T17:07:38.438Z,3.83
2024-04-25T17:10:08.730Z,3.90
2024-04-25T17:12:36.933Z,3.97
2024-04-25T17:15:06.675Z,3.10
2024-04-25T17:17:34.873Z,5.30
2024-04-25T17:20:02.409Z,3.50
2024-04-25T17:22:30.003Z,2.80
2024-04-25T17:24:57.799Z,3.07
2024-04-25T17:27:26.472Z,3.70
2024-04-25T17:29:54.330Z,3.13
2024-04-25T17:32:22.307Z,3.77
2024-04-25T17:34:52.215Z,2.97
2024-04-25T17:37:21.324Z,3.60
2024-04-25T17:39:48.900Z,3.30
2024-04-25T17:42:16.450Z,2.63
2024-04-25T17:44:49.702Z,2.60
2024-04-25T17:47:17.586Z,3.83
2024-04-25T17:49:45.395Z,2.73
2024-04-25T17:52:13.022Z,3.33
2024-04-25T17:54:40.553Z,2.33
2024-04-25T17:57:08.356Z,3.27
2024-04-25T17:59:35.874Z,2.77
2024-04-25T18:02:05.733Z,3.00
2024-04-25T18:04:34.939Z,2.80
2024-04-25T18:07:08.354Z,3.10
2024-04-25T18:09:35.836Z,2.60
2024-04-25T18:12:03.379Z,2.87
2024-04-25T18:14:30.831Z,3.60
2024-04-25T18:16:58.412Z,8.27
2024-04-25T18:19:25.808Z,4.80
2024-04-25T18:21:53.184Z,7.00
2024-04-25T18:24:23.015Z,5.03
2024-04-25T18:26:50.715Z,3.33
2024-04-25T18:29:18.272Z,2.83
2024-04-25T18:31:45.721Z,4.93
2024-04-25T18:34:13.524Z,3.60
2024-04-25T18:36:41.055Z,3.33
2024-04-25T18:39:12.191Z,4.77
2024-04-25T18:41:40.154Z,3.00
2024-04-25T18:44:07.911Z,3.10
2024-04-25T18:46:35.547Z,3.43
2024-04-25T18:49:04.345Z,3.27
2024-04-25T18:51:31.955Z,3.63
2024-04-25T18:53:59.406Z,4.37
2024-04-25T18:56:26.903Z,2.90
2024-04-25T18:58:55.626Z,3.27
2024-04-25T19:01:23.280Z,3.30
2024-04-25T19:03:51.218Z,3.90
2024-04-25T19:06:18.561Z,3.77
2024-04-25T19:08:46.310Z,4.37
2024-04-25T19:11:13.829Z,4.73
2024-04-25T19:13:43.913Z,4.67
2024-04-25T19:16:11.622Z,5.57
2024-04-25T19:18:40.364Z,3.80
2024-04-25T19:21:08.158Z,4.37
2024-04-25T19:23:36.292Z,4.00
2024-04-25T19:26:03.815Z,4.20
2024-04-25T19:28:31.391Z,3.43
2024-04-25T19:31:01.211Z,3.43
2024-04-25T19:33:28.900Z,3.30
2024-04-25T19:35:56.448Z,4.27
2024-04-25T19:38:24.814Z,4.20
2024-04-25T19:40:52.489Z,4.30
2024-04-25T19:43:21.218Z,4.50
2024-04-25T19:45:49.180Z,4.73
2024-04-25T19:48:16.896Z,5.27
2024-04-25T19:50:45.047Z,4.30
2024-04-25T19:53:12.872Z,4.20
2024-04-25T19:55:40.673Z,4.83
2024-04-25T19:58:08.393Z,5.10
2024-04-25T20:00:36.006Z,4.63
2024-04-25T20:03:03.930Z,30.23
2024-04-25T20:05:31.415Z,4.80
2024-04-25T20:07:59.013Z,4.33
2024-04-25T20:10:27.750Z,4.40
2024-04-25T20:12:56.212Z,4.53
2024-04-25T20:15:23.889Z,4.80
2024-04-25T20:18:09.968Z,4.80
2024-04-25T20:20:56.179Z,4.40
2024-04-25T20:23:24.385Z,4.17
2024-04-25T20:25:52.037Z,4.80
2024-04-25T20:28:19.554Z,4.10
2024-04-25T20:30:46.962Z,4.40
2024-04-25T20:33:15.815Z,4.37
2024-04-25T20:35:43.455Z,4.40
2024-04-25T20:38:11.114Z,5.70
2024-04-25T20:40:38.577Z,4.67
2024-04-25T20:43:06.130Z,4.93
2024-04-25T20:45:33.661Z,4.10
2024-04-25T20:48:01.322Z,4.23
2024-04-25T20:50:29.213Z,4.20
2024-04-25T20:52:56.992Z,4.00
2024-04-25T20:55:24.708Z,3.83
2024-04-25T20:57:52.262Z,4.60
2024-04-25T21:00:20.610Z,5.73
2024-04-25T21:02:48.817Z,4.50
2024-04-25T21:05:16.410Z,4.20
2024-04-25T21:07:44.087Z,4.10
2024-04-25T21:10:11.632Z,4.43
2024-04-25T21:12:41.679Z,4.30
2024-04-25T21:15:11.054Z,4.83
2024-04-25T21:17:44.793Z,4.53
2024-04-25T21:20:12.516Z,6.10
2024-04-25T21:22:44.165Z,5.33
2024-04-25T21:25:11.799Z,5.37
2024-04-25T21:27:39.377Z,9.57
2024-04-25T21:30:07.969Z,4.40
2024-04-25T21:32:43.120Z,4.93
2024-04-25T21:35:12.911Z,4.50
2024-04-25T21:37:41.121Z,4.67
2024-04-25T21:40:09.219Z,5.07
2024-04-25T21:42:37.110Z,4.33
2024-04-25T21:45:05.929Z,4.40
2024-04-25T21:47:34.011Z,6.63
2024-04-25T21:50:01.653Z,4.57
2024-04-25T21:52:29.313Z,4.37
2024-04-25T21:54:57.173Z,4.40
2024-04-25T21:57:25.580Z,4.30
2024-04-25T21:59:53.150Z,5.13
2024-04-25T22:02:21.065Z,5.73
2024-04-25T22:04:48.538Z,6.70
2024-04-25T22:07:16.077Z,4.83
2024-04-25T22:09:43.551Z,4.27
2024-04-25T22:12:13.153Z,4.00
2024-04-25T22:14:40.956Z,4.53
2024-04-25T22:17:10.444Z,4.37
2024-04-25T22:19:38.274Z,4.70
2024-04-25T22:22:06.078Z,4.73
2024-04-25T22:24:33.630Z,4.73
2024-04-25T22:27:01.714Z,4.90
2024-04-25T22:29:29.262Z,3.90
2024-04-25T22:31:56.855Z,4.20
2024-04-25T22:34:24.359Z,4.20
2024-04-25T22:36:51.918Z,4.40
2024-04-25T22:39:19.788Z,4.27
2024-04-25T22:41:47.227Z,5.00
2024-04-25T22:44:14.709Z,4.17
2024-04-25T22:46:42.443Z,3.90
2024-04-25T22:49:10.634Z,4.20
2024-04-25T22:51:41.883Z,4.30
2024-04-25T22:54:09.449Z,4.93
2024-04-25T22:56:37.348Z,4.30
2024-04-25T22:59:05.065Z,4.50
2024-04-25T23:01:33.994Z,5.20
2024-04-25T23:04:05.893Z,5.37
2024-04-25T23:06:36.785Z,5.60
2024-04-25T23:09:04.432Z,5.50
2024-04-25T23:11:32.222Z,4.80
2024-04-25T23:14:01.182Z,6.33
2024-04-25T23:16:29.599Z,5.67
2024-04-25T23:18:57.674Z,6.97
2024-04-25T23:21:25.176Z,5.27
2024-04-25T23:23:52.906Z,5.50
2024-04-25T23:26:20.433Z,5.63
2024-04-25T23:28:48.576Z,5.20
2024-04-25T23:31:20.325Z,6.40
2024-04-25T23:33:48.334Z,6.77
2024-04-25T23:36:16.555Z,5.87
2024-04-25T23:38:45.391Z,5.63
2024-04-25T23:41:13.046Z,7.00
2024-04-25T23:43:41.908Z,6.10
2024-04-25T23:46:09.486Z,8.63
2024-04-25T23:48:37.286Z,6.60
2024-04-25T23:51:05.370Z,7.10
2024-04-25T23:53:32.886Z,6.60
2024-04-25T23:56:00.532Z,9.23
2024-04-25T23:58:28.726Z,6.80
